sensor_id;sensor_type;location;lat;lon;timestamp;pressure;altitude;pressure_sealevel;temperature;humidity
17254;BME280;32542;52.832;13.816;2023-07-29T00:01:00;100742.84;;;23.71;57.41
17254;BME280;32542;52.832;13.816;2023-07-29T00:04:03;100734.81;;;23.71;57.17
17254;BME280;32542;52.832;13.816;2023-07-29T00:07:06;100738.34;;;23.71;57.50
17254;BME280;32542;52.832;13.816;2023-07-29T00:10:11;100734.06;;;23.69;57.27
17254;BME280;32542;52.832;13.816;2023-07-29T00:13:14;100732.31;;;23.68;57.27
17254;BME280;32542;52.832;13.816;2023-07-29T00:16:16;100733.19;;;23.68;57.21
17254;BME280;32542;52.832;13.816;2023-07-29T00:19:19;100724.28;;;23.68;57.61
17254;BME280;32542;52.832;13.816;2023-07-29T00:22:25;100734.13;;;23.67;57.32
17254;BME280;32542;52.832;13.816;2023-07-29T00:25:29;100726.19;;;23.66;57.61
17254;BME280;32542;52.832;13.816;2023-07-29T00:28:32;100724.41;;;23.66;57.27
17254;BME280;32542;52.832;13.816;2023-07-29T00:31:35;100727.06;;;23.66;57.48
17254;BME280;32542;52.832;13.816;2023-07-29T00:34:38;100726.09;;;23.67;57.58
17254;BME280;32542;52.832;13.816;2023-07-29T00:37:41;100720.75;;;23.67;57.38
17254;BME280;32542;52.832;13.816;2023-07-29T00:40:47;100714.53;;;23.67;57.53
17254;BME280;32542;52.832;13.816;2023-07-29T00:43:50;100711.97;;;23.65;57.36
17254;BME280;32542;52.832;13.816;2023-07-29T00:46:53;100717.31;;;23.65;57.45
17254;BME280;32542;52.832;13.816;2023-07-29T00:49:57;100707.50;;;23.66;57.20
17254;BME280;32542;52.832;13.816;2023-07-29T00:53:00;100703.09;;;23.65;57.31
17254;BME280;32542;52.832;13.816;2023-07-29T00:56:04;100704.91;;;23.64;57.15
17254;BME280;32542;52.832;13.816;2023-07-29T00:59:08;100703.19;;;23.63;57.50
17254;BME280;32542;52.832;13.816;2023-07-29T01:02:11;100695.16;;;23.63;57.59
17254;BME280;32542;52.832;13.816;2023-07-29T01:05:16;100703.19;;;23.63;57.47
17254;BME280;32542;52.832;13.816;2023-07-29T01:08:27;100700.50;;;23.63;57.53
17254;BME280;32542;52.832;13.816;2023-07-29T01:11:43;100704.06;;;23.64;57.13
17254;BME280;32542;52.832;13.816;2023-07-29T01:14:55;100696.03;;;23.64;57.36
17254;BME280;32542;52.832;13.816;2023-07-29T01:18:04;100701.38;;;23.64;57.39
17254;BME280;32542;52.832;13.816;2023-07-29T01:21:08;100698.72;;;23.64;57.45
17254;BME280;32542;52.832;13.816;2023-07-29T01:24:13;100694.28;;;23.63;57.27
17254;BME280;32542;52.832;13.816;2023-07-29T01:27:16;100692.50;;;23.63;57.31
17254;BME280;32542;52.832;13.816;2023-07-29T01:30:19;100691.63;;;23.63;57.33
17254;BME280;32542;52.832;13.816;2023-07-29T01:33:26;100694.41;;;23.61;57.18
17254;BME280;32542;52.832;13.816;2023-07-29T01:36:31;100705.97;;;23.62;57.03
17254;BME280;32542;52.832;13.816;2023-07-29T01:39:38;100699.75;;;23.61;57.27
17254;BME280;32542;52.832;13.816;2023-07-29T01:42:41;100705.09;;;23.61;57.10
17254;BME280;32542;52.832;13.816;2023-07-29T01:45:45;100699.75;;;23.61;57.05
17254;BME280;32542;52.832;13.816;2023-07-29T01:48:48;100704.22;;;23.61;57.38
17254;BME280;32542;52.832;13.816;2023-07-29T01:51:51;100705.09;;;23.61;56.92
17254;BME280;32542;52.832;13.816;2023-07-29T01:54:56;100705.97;;;23.62;57.11
17254;BME280;32542;52.832;13.816;2023-07-29T01:57:58;100701.53;;;23.61;57.30
17254;BME280;32542;52.832;13.816;2023-07-29T02:01:02;100704.31;;;23.59;57.17
17254;BME280;32542;52.832;13.816;2023-07-29T02:04:05;100705.09;;;23.61;56.83
17254;BME280;32542;52.832;13.816;2023-07-29T02:07:08;100714.09;;;23.60;57.15
17254;BME280;32542;52.832;13.816;2023-07-29T02:10:13;100717.69;;;23.59;56.93
17254;BME280;32542;52.832;13.816;2023-07-29T02:13:16;100712.34;;;23.59;57.14
17254;BME280;32542;52.832;13.816;2023-07-29T02:16:19;100715.03;;;23.59;57.11
17254;BME280;32542;52.832;13.816;2023-07-29T02:19:22;100721.31;;;23.58;56.85
17254;BME280;32542;52.832;13.816;2023-07-29T02:22:25;100715.97;;;23.58;56.88
17254;BME280;32542;52.832;13.816;2023-07-29T02:25:29;100705.25;;;23.58;56.75
17254;BME280;32542;52.832;13.816;2023-07-29T02:28:32;100706.13;;;23.59;56.80
17254;BME280;32542;52.832;13.816;2023-07-29T02:31:35;100715.03;;;23.59;56.84
17254;BME280;32542;52.832;13.816;2023-07-29T02:34:39;100715.97;;;23.58;56.80
17254;BME280;32542;52.832;13.816;2023-07-29T02:37:42;100708.91;;;23.57;56.77
17254;BME280;32542;52.832;13.816;2023-07-29T02:40:46;100708.91;;;23.57;56.83
17254;BME280;32542;52.832;13.816;2023-07-29T02:43:50;100704.50;;;23.56;57.08
17254;BME280;32542;52.832;13.816;2023-07-29T02:46:53;100693.81;;;23.56;57.01
17254;BME280;32542;52.832;13.816;2023-07-29T02:49:57;100687.63;;;23.56;57.13
17254;BME280;32542;52.832;13.816;2023-07-29T02:53:00;100685.78;;;23.56;56.91
17254;BME280;32542;52.832;13.816;2023-07-29T02:56:05;100699.16;;;23.56;57.08
17254;BME280;32542;52.832;13.816;2023-07-29T02:59:10;100706.34;;;23.56;57.06
17254;BME280;32542;52.832;13.816;2023-07-29T03:02:13;100700.13;;;23.55;57.02
17254;BME280;32542;52.832;13.816;2023-07-29T03:05:17;100704.50;;;23.56;56.80
17254;BME280;32542;52.832;13.816;2023-07-29T03:08:20;100694.78;;;23.55;56.98
17254;BME280;32542;52.832;13.816;2023-07-29T03:11:25;100693.81;;;23.56;56.77
17254;BME280;32542;52.832;13.816;2023-07-29T03:14:28;100706.34;;;23.56;56.86
17254;BME280;32542;52.832;13.816;2023-07-29T03:17:30;100705.47;;;23.55;56.87
17254;BME280;32542;52.832;13.816;2023-07-29T03:20:33;100711.75;;;23.54;56.84
17254;BME280;32542;52.832;13.816;2023-07-29T03:23:38;100711.75;;;23.54;56.72
17254;BME280;32542;52.832;13.816;2023-07-29T03:26:42;100712.63;;;23.55;57.12
17254;BME280;32542;52.832;13.816;2023-07-29T03:29:47;100708.25;;;23.54;57.06
17254;BME280;32542;52.832;13.816;2023-07-29T03:32:50;100715.41;;;23.53;56.76
17254;BME280;32542;52.832;13.816;2023-07-29T03:35:53;100709.06;;;23.54;56.97
17254;BME280;32542;52.832;13.816;2023-07-29T03:38:56;100709.06;;;23.54;56.98
17254;BME280;32542;52.832;13.816;2023-07-29T03:42:01;100706.41;;;23.54;57.14
17254;BME280;32542;52.832;13.816;2023-07-29T03:45:05;100709.06;;;23.54;56.78
17254;BME280;32542;52.832;13.816;2023-07-29T03:48:08;100701.06;;;23.54;56.95
17254;BME280;32542;52.832;13.816;2023-07-29T03:51:11;100701.16;;;23.53;56.79
17254;BME280;32542;52.832;13.816;2023-07-29T03:54:14;100686.00;;;23.53;56.81
17254;BME280;32542;52.832;13.816;2023-07-29T04:00:21;100687.91;;;23.51;57.08
17254;BME280;32542;52.832;13.816;2023-07-29T04:06:29;100695.91;;;23.51;56.85
17254;BME280;32542;52.832;13.816;2023-07-29T04:09:32;100698.59;;;23.51;56.96
17254;BME280;32542;52.832;13.816;2023-07-29T04:15:39;100710.97;;;23.52;57.09
17254;BME280;32542;52.832;13.816;2023-07-29T04:27:53;100696.84;;;23.50;56.72
17254;BME280;32542;52.832;13.816;2023-07-29T04:30:56;100708.41;;;23.51;56.77
17254;BME280;32542;52.832;13.816;2023-07-29T04:33:59;100709.28;;;23.51;56.97
17254;BME280;32542;52.832;13.816;2023-07-29T04:37:04;100707.53;;;23.50;56.89
17254;BME280;32542;52.832;13.816;2023-07-29T04:51:23;100720.13;;;23.48;57.00
17254;BME280;32542;52.832;13.816;2023-07-29T04:54:26;100724.56;;;23.49;56.63
17254;BME280;32542;52.832;13.816;2023-07-29T04:57:29;100711.19;;;23.49;56.67
17254;BME280;32542;52.832;13.816;2023-07-29T05:00:32;100713.00;;;23.49;56.97
17254;BME280;32542;52.832;13.816;2023-07-29T05:03:35;100713.84;;;23.49;57.03
17254;BME280;32542;52.832;13.816;2023-07-29T05:06:41;100698.75;;;23.48;56.95
17254;BME280;32542;52.832;13.816;2023-07-29T05:09:43;100701.44;;;23.48;56.95
17254;BME280;32542;52.832;13.816;2023-07-29T05:12:46;100703.25;;;23.48;56.61
17254;BME280;32542;52.832;13.816;2023-07-29T05:15:50;100703.25;;;23.48;56.82
17254;BME280;32542;52.832;13.816;2023-07-29T05:18:53;100702.41;;;23.47;56.69
17254;BME280;32542;52.832;13.816;2023-07-29T05:21:57;100707.75;;;23.47;56.63
17254;BME280;32542;52.832;13.816;2023-07-29T05:25:02;100702.41;;;23.47;56.80
17254;BME280;32542;52.832;13.816;2023-07-29T05:28:05;100713.94;;;23.48;56.72
17254;BME280;32542;52.832;13.816;2023-07-29T05:31:08;100701.44;;;23.48;56.88
17254;BME280;32542;52.832;13.816;2023-07-29T05:34:11;100706.78;;;23.48;56.89
17254;BME280;32542;52.832;13.816;2023-07-29T05:37:16;100700.56;;;23.48;56.72
17254;BME280;32542;52.832;13.816;2023-07-29T05:40:18;100693.41;;;23.48;56.73
17254;BME280;32542;52.832;13.816;2023-07-29T05:43:23;100702.31;;;23.49;56.84
17254;BME280;32542;52.832;13.816;2023-07-29T05:46:27;100691.59;;;23.49;56.76
17254;BME280;32542;52.832;13.816;2023-07-29T05:49:30;100677.38;;;23.48;56.65
17254;BME280;32542;52.832;13.816;2023-07-29T05:52:36;100686.38;;;23.47;56.92
17254;BME280;32542;52.832;13.816;2023-07-29T05:55:39;100694.28;;;23.49;56.85
17254;BME280;32542;52.832;13.816;2023-07-29T05:58:42;100688.06;;;23.48;56.64
17254;BME280;32542;52.832;13.816;2023-07-29T06:01:45;100683.59;;;23.49;56.65
17254;BME280;32542;52.832;13.816;2023-07-29T06:04:48;100679.13;;;23.49;56.65
17254;BME280;32542;52.832;13.816;2023-07-29T06:07:53;100679.13;;;23.49;56.37
17254;BME280;32542;52.832;13.816;2023-07-29T06:10:56;100679.13;;;23.49;56.29
17254;BME280;32542;52.832;13.816;2023-07-29T06:13:58;100672.91;;;23.49;56.76
17254;BME280;32542;52.832;13.816;2023-07-29T06:17:01;100669.28;;;23.50;56.88
17254;BME280;32542;52.832;13.816;2023-07-29T06:20:05;100668.41;;;23.49;56.91
17254;BME280;32542;52.832;13.816;2023-07-29T06:23:10;100663.94;;;23.50;56.62
17254;BME280;32542;52.832;13.816;2023-07-29T06:26:12;100666.69;;;23.48;56.72
17254;BME280;32542;52.832;13.816;2023-07-29T06:29:15;100664.78;;;23.50;56.73
17254;BME280;32542;52.832;13.816;2023-07-29T06:32:18;100663.06;;;23.49;56.63
17254;BME280;32542;52.832;13.816;2023-07-29T06:35:21;100655.94;;;23.50;56.62
17254;BME280;32542;52.832;13.816;2023-07-29T06:38:26;100658.59;;;23.50;56.69
17254;BME280;32542;52.832;13.816;2023-07-29T06:41:29;100647.03;;;23.49;56.72
17254;BME280;32542;52.832;13.816;2023-07-29T06:44:37;100638.06;;;23.50;56.63
17254;BME280;32542;52.832;13.816;2023-07-29T06:47:40;100647.81;;;23.51;56.81
17254;BME280;32542;52.832;13.816;2023-07-29T06:50:42;100638.81;;;23.52;57.20
17254;BME280;32542;52.832;13.816;2023-07-29T06:53:47;100637.88;;;23.53;57.23
17254;BME280;32542;52.832;13.816;2023-07-29T06:59:52;100625.44;;;23.52;57.31
17254;BME280;32542;52.832;13.816;2023-07-29T07:02:55;100636.13;;;23.52;57.41
17254;BME280;32542;52.832;13.816;2023-07-29T07:05:58;100630.78;;;23.52;57.39
17254;BME280;32542;52.832;13.816;2023-07-29T07:12:06;100631.66;;;23.53;57.24
17254;BME280;32542;52.832;13.816;2023-07-29T07:15:10;100628.13;;;23.52;57.54
17254;BME280;32542;52.832;13.816;2023-07-29T07:18:12;100627.19;;;23.53;58.08
17254;BME280;32542;52.832;13.816;2023-07-29T07:21:15;100627.19;;;23.53;58.13
17254;BME280;32542;52.832;13.816;2023-07-29T07:24:19;100627.09;;;23.55;58.02
17254;BME280;32542;52.832;13.816;2023-07-29T07:27:23;100629.75;;;23.55;57.57
17254;BME280;32542;52.832;13.816;2023-07-29T07:30:26;100630.63;;;23.55;58.94
17254;BME280;32542;52.832;13.816;2023-07-29T07:33:29;100630.63;;;23.55;58.75
17254;BME280;32542;52.832;13.816;2023-07-29T07:36:32;100630.63;;;23.55;58.15
17254;BME280;32542;52.832;13.816;2023-07-29T07:39:37;100617.25;;;23.55;58.44
17254;BME280;32542;52.832;13.816;2023-07-29T07:42:39;100613.59;;;23.56;59.60
17254;BME280;32542;52.832;13.816;2023-07-29T07:45:42;100612.66;;;23.57;60.26
17254;BME280;32542;52.832;13.816;2023-07-29T07:48:45;100612.66;;;23.57;60.73
17254;BME280;32542;52.832;13.816;2023-07-29T07:51:48;100599.31;;;23.57;60.55
17254;BME280;32542;52.832;13.816;2023-07-29T07:54:53;100594.72;;;23.59;61.06
17254;BME280;32542;52.832;13.816;2023-07-29T07:57:56;100599.13;;;23.60;60.53
17254;BME280;32542;52.832;13.816;2023-07-29T08:01:03;100609.81;;;23.60;59.52
17254;BME280;32542;52.832;13.816;2023-07-29T08:04:06;100607.16;;;23.60;58.92
17254;BME280;32542;52.832;13.816;2023-07-29T08:07:09;100607.97;;;23.61;59.87
17254;BME280;32542;52.832;13.816;2023-07-29T08:10:14;100611.63;;;23.60;59.51
17254;BME280;32542;52.832;13.816;2023-07-29T08:13:16;100604.53;;;23.59;58.93
17254;BME280;32542;52.832;13.816;2023-07-29T08:16:19;100609.81;;;23.60;59.31
17254;BME280;32542;52.832;13.816;2023-07-29T08:19:22;100604.47;;;23.60;59.08
17254;BME280;32542;52.832;13.816;2023-07-29T08:22:25;100601.81;;;23.60;58.40
17254;BME280;32542;52.832;13.816;2023-07-29T08:25:30;100598.16;;;23.61;58.45
17254;BME280;32542;52.832;13.816;2023-07-29T08:28:34;100598.16;;;23.61;58.55
17254;BME280;32542;52.832;13.816;2023-07-29T08:31:37;100599.03;;;23.62;58.60
17254;BME280;32542;52.832;13.816;2023-07-29T08:34:40;100596.25;;;23.63;58.56
17254;BME280;32542;52.832;13.816;2023-07-29T08:37:43;100594.53;;;23.62;58.43
17254;BME280;32542;52.832;13.816;2023-07-29T08:40:50;100598.91;;;23.63;58.32
17254;BME280;32542;52.832;13.816;2023-07-29T08:44:01;100597.09;;;23.64;58.33
17254;BME280;32542;52.832;13.816;2023-07-29T08:47:04;100586.41;;;23.64;58.49
17254;BME280;32542;52.832;13.816;2023-07-29T08:50:08;100591.75;;;23.64;58.23
17254;BME280;32542;52.832;13.816;2023-07-29T08:53:16;100595.31;;;23.64;58.54
17254;BME280;32542;52.832;13.816;2023-07-29T08:56:21;100596.13;;;23.65;58.31
17254;BME280;32542;52.832;13.816;2023-07-29T08:59:24;100586.31;;;23.65;58.46
17254;BME280;32542;52.832;13.816;2023-07-29T09:02:28;100589.00;;;23.65;58.35
17254;BME280;32542;52.832;13.816;2023-07-29T09:05:33;100590.72;;;23.66;58.52
17254;BME280;32542;52.832;13.816;2023-07-29T09:08:36;100581.84;;;23.66;58.63
17254;BME280;32542;52.832;13.816;2023-07-29T09:11:40;100588.88;;;23.67;58.43
17254;BME280;32542;52.832;13.816;2023-07-29T09:14:44;100587.06;;;23.67;58.53
17254;BME280;32542;52.832;13.816;2023-07-29T09:17:47;100588.81;;;23.68;58.50
17254;BME280;32542;52.832;13.816;2023-07-29T09:20:50;100588.81;;;23.68;58.45
17254;BME280;32542;52.832;13.816;2023-07-29T09:23:53;100588.81;;;23.68;58.49
17254;BME280;32542;52.832;13.816;2023-07-29T09:26:57;100582.59;;;23.68;58.46
17254;BME280;32542;52.832;13.816;2023-07-29T09:30:00;100574.47;;;23.69;58.21
17254;BME280;32542;52.832;13.816;2023-07-29T09:33:04;100565.63;;;23.69;58.45
17254;BME280;32542;52.832;13.816;2023-07-29T09:36:09;100562.06;;;23.68;58.35
17254;BME280;32542;52.832;13.816;2023-07-29T09:39:12;100567.41;;;23.68;58.62
17254;BME280;32542;52.832;13.816;2023-07-29T09:42:21;100567.22;;;23.71;58.53
17254;BME280;32542;52.832;13.816;2023-07-29T09:45:26;100559.19;;;23.71;58.71
17254;BME280;32542;52.832;13.816;2023-07-29T09:48:32;100560.91;;;23.72;58.66
17254;BME280;32542;52.832;13.816;2023-07-29T09:51:37;100553.75;;;23.73;58.42
17254;BME280;32542;52.832;13.816;2023-07-29T09:54:42;100547.56;;;23.72;58.69
17254;BME280;32542;52.832;13.816;2023-07-29T09:57:46;100542.19;;;23.72;58.40
17254;BME280;32542;52.832;13.816;2023-07-29T10:00:49;100543.91;;;23.73;58.58
17254;BME280;32542;52.832;13.816;2023-07-29T10:03:54;100541.22;;;23.73;58.84
17254;BME280;32542;52.832;13.816;2023-07-29T10:07:01;100540.28;;;23.74;59.26
17254;BME280;32542;52.832;13.816;2023-07-29T10:10:06;100526.91;;;23.74;59.01
17254;BME280;32542;52.832;13.816;2023-07-29T10:13:12;100531.28;;;23.75;58.56
17254;BME280;32542;52.832;13.816;2023-07-29T10:16:15;100528.63;;;23.75;58.50
17254;BME280;32542;52.832;13.816;2023-07-29T10:19:19;100519.66;;;23.76;58.47
17254;BME280;32542;52.832;13.816;2023-07-29T10:22:25;100513.34;;;23.77;58.74
17254;BME280;32542;52.832;13.816;2023-07-29T10:25:34;100510.59;;;23.79;58.72
17254;BME280;32542;52.832;13.816;2023-07-29T10:28:47;100513.25;;;23.79;58.65
17254;BME280;32542;52.832;13.816;2023-07-29T10:31:52;100503.44;;;23.79;59.00
17254;BME280;32542;52.832;13.816;2023-07-29T10:34:56;100498.09;;;23.79;59.77
17254;BME280;32542;52.832;13.816;2023-07-29T10:37:59;100503.44;;;23.79;59.78
17254;BME280;32542;52.832;13.816;2023-07-29T10:41:02;100497.09;;;23.80;59.16
17254;BME280;32542;52.832;13.816;2023-07-29T10:47:44;100494.44;;;23.80;58.89
17254;BME280;32542;52.832;13.816;2023-07-29T10:50:48;100481.06;;;23.80;58.88
17254;BME280;32542;52.832;13.816;2023-07-29T10:53:52;100483.72;;;23.80;58.72
17254;BME280;32542;52.832;13.816;2023-07-29T10:56:58;100483.63;;;23.82;58.92
17254;BME280;32542;52.832;13.816;2023-07-29T11:00:03;100490.69;;;23.83;58.57
17254;BME280;32542;52.832;13.816;2023-07-29T11:03:07;100479.03;;;23.84;58.79
17254;BME280;32542;52.832;13.816;2023-07-29T11:06:10;100471.88;;;23.84;58.86
17254;BME280;32542;52.832;13.816;2023-07-29T11:09:40;100466.53;;;23.84;58.80
17254;BME280;32542;52.832;13.816;2023-07-29T11:12:44;100471.88;;;23.84;58.65
17254;BME280;32542;52.832;13.816;2023-07-29T11:15:50;100479.03;;;23.84;58.44
17254;BME280;32542;52.832;13.816;2023-07-29T11:18:53;100465.66;;;23.84;58.65
17254;BME280;32542;52.832;13.816;2023-07-29T11:21:57;100463.97;;;23.83;58.71
17254;BME280;32542;52.832;13.816;2023-07-29T11:25:01;100471.00;;;23.84;58.37
17254;BME280;32542;52.832;13.816;2023-07-29T11:28:04;100481.72;;;23.84;58.71
17254;BME280;32542;52.832;13.816;2023-07-29T11:31:09;100479.03;;;23.84;58.25
17254;BME280;32542;52.832;13.816;2023-07-29T11:34:12;100472.84;;;23.83;58.61
17254;BME280;32542;52.832;13.816;2023-07-29T11:37:18;100459.38;;;23.85;58.60
17254;BME280;32542;52.832;13.816;2023-07-29T11:40:23;100445.13;;;23.84;58.56
17254;BME280;32542;52.832;13.816;2023-07-29T11:43:26;100456.59;;;23.86;59.11
17254;BME280;32542;52.832;13.816;2023-07-29T11:46:31;100462.81;;;23.87;59.27
17254;BME280;32542;52.832;13.816;2023-07-29T11:49:34;100452.22;;;23.85;59.67
17254;BME280;32542;52.832;13.816;2023-07-29T11:52:37;100470.81;;;23.87;59.92
17254;BME280;32542;52.832;13.816;2023-07-29T11:55:40;100479.72;;;23.87;60.78
17254;BME280;32542;52.832;13.816;2023-07-29T11:58:43;100509.88;;;23.89;60.50
17254;BME280;32542;52.832;13.816;2023-07-29T12:01:48;100545.59;;;23.88;60.00
17254;BME280;32542;52.832;13.816;2023-07-29T12:04:51;100588.31;;;23.90;60.22
17254;BME280;32542;52.832;13.816;2023-07-29T12:07:55;100453.72;;;23.89;59.58
17254;BME280;32542;52.832;13.816;2023-07-29T12:10:58;100464.44;;;23.89;59.76
17254;BME280;32542;52.832;13.816;2023-07-29T12:14:01;100492.03;;;23.90;59.73
17254;BME280;32542;52.832;13.816;2023-07-29T12:17:06;100505.41;;;23.90;59.57
17254;BME280;32542;52.832;13.816;2023-07-29T12:20:10;100510.75;;;23.90;59.97
17254;BME280;32542;52.832;13.816;2023-07-29T12:23:13;100516.09;;;23.90;59.84
17254;BME280;32542;52.832;13.816;2023-07-29T12:26:16;100507.22;;;23.89;59.91
17254;BME280;32542;52.832;13.816;2023-07-29T12:29:19;100508.91;;;23.90;59.92
17254;BME280;32542;52.832;13.816;2023-07-29T12:32:25;100506.34;;;23.89;59.97
17254;BME280;32542;52.832;13.816;2023-07-29T12:35:35;100509.88;;;23.89;59.88
17254;BME280;32542;52.832;13.816;2023-07-29T12:38:38;100505.47;;;23.88;59.92
17254;BME280;32542;52.832;13.816;2023-07-29T12:48:52;100505.47;;;23.88;59.72
17254;BME280;32542;52.832;13.816;2023-07-29T12:51:55;100507.22;;;23.89;59.57
17254;BME280;32542;52.832;13.816;2023-07-29T12:54:58;100500.06;;;23.90;59.58
17254;BME280;32542;52.832;13.816;2023-07-29T12:58:01;100507.22;;;23.89;59.76
17254;BME280;32542;52.832;13.816;2023-07-29T13:01:04;100495.53;;;23.90;59.60
17254;BME280;32542;52.832;13.816;2023-07-29T13:04:09;100499.19;;;23.89;59.73
17254;BME280;32542;52.832;13.816;2023-07-29T13:07:12;100501.88;;;23.89;60.10
17254;BME280;32542;52.832;13.816;2023-07-29T13:10:15;100508.09;;;23.90;59.98
17254;BME280;32542;52.832;13.816;2023-07-29T13:13:18;100503.69;;;23.89;60.13
17254;BME280;32542;52.832;13.816;2023-07-29T13:16:22;100497.38;;;23.90;60.41
17254;BME280;32542;52.832;13.816;2023-07-29T13:19:26;100494.78;;;23.88;60.37
17254;BME280;32542;52.832;13.816;2023-07-29T13:22:29;100496.53;;;23.89;60.51
17254;BME280;32542;52.832;13.816;2023-07-29T13:25:32;100491.94;;;23.91;60.34
17254;BME280;32542;52.832;13.816;2023-07-29T13:28:35;100496.41;;;23.91;60.19
17254;BME280;32542;52.832;13.816;2023-07-29T13:31:38;100489.25;;;23.91;60.17
17254;BME280;32542;52.832;13.816;2023-07-29T13:34:43;100492.69;;;23.93;60.45
17254;BME280;32542;52.832;13.816;2023-07-29T13:37:45;100497.16;;;23.93;60.19
17254;BME280;32542;52.832;13.816;2023-07-29T13:40:48;100503.50;;;23.92;60.09
17254;BME280;32542;52.832;13.816;2023-07-29T13:43:52;100512.34;;;23.92;60.43
17254;BME280;32542;52.832;13.816;2023-07-29T13:46:55;100503.38;;;23.93;60.47
17254;BME280;32542;52.832;13.816;2023-07-29T13:50:00;100487.34;;;23.93;60.51
17254;BME280;32542;52.832;13.816;2023-07-29T13:53:02;100489.03;;;23.94;60.44
17254;BME280;32542;52.832;13.816;2023-07-29T13:56:05;100489.03;;;23.94;60.44
17254;BME280;32542;52.832;13.816;2023-07-29T13:59:08;100472.97;;;23.94;60.53
17254;BME280;32542;52.832;13.816;2023-07-29T14:02:11;100483.59;;;23.96;60.54
17254;BME280;32542;52.832;13.816;2023-07-29T14:05:15;100481.75;;;23.96;60.20
17254;BME280;32542;52.832;13.816;2023-07-29T14:08:18;100476.41;;;23.96;60.35
17254;BME280;32542;52.832;13.816;2023-07-29T14:11:21;100479.00;;;23.98;60.30
17254;BME280;32542;52.832;13.816;2023-07-29T14:14:24;100488.84;;;23.97;60.45
17254;BME280;32542;52.832;13.816;2023-07-29T14:17:27;100478.16;;;23.97;60.31
17254;BME280;32542;52.832;13.816;2023-07-29T14:20:32;100481.69;;;23.98;60.21
17254;BME280;32542;52.832;13.816;2023-07-29T14:23:35;100472.78;;;23.97;60.33
17254;BME280;32542;52.832;13.816;2023-07-29T14:26:38;100464.78;;;23.97;60.52
17254;BME280;32542;52.832;13.816;2023-07-29T14:29:41;100463.81;;;23.98;60.47
17254;BME280;32542;52.832;13.816;2023-07-29T14:32:43;100462.09;;;23.97;60.42
17254;BME280;32542;52.832;13.816;2023-07-29T14:35:48;100452.16;;;23.99;60.06
17254;BME280;32542;52.832;13.816;2023-07-29T14:38:51;100451.22;;;24.00;60.30
17254;BME280;32542;52.832;13.816;2023-07-29T14:41:54;100445.84;;;24.00;60.34
17254;BME280;32542;52.832;13.816;2023-07-29T14:44:57;100429.81;;;24.00;60.07
17254;BME280;32542;52.832;13.816;2023-07-29T14:47:59;100438.59;;;24.02;60.17
17254;BME280;32542;52.832;13.816;2023-07-29T14:51:04;100430.56;;;24.02;60.30
17254;BME280;32542;52.832;13.816;2023-07-29T14:54:07;100438.59;;;24.02;60.21
17254;BME280;32542;52.832;13.816;2023-07-29T14:57:10;100438.59;;;24.02;60.11
17254;BME280;32542;52.832;13.816;2023-07-29T15:00:13;100445.63;;;24.03;60.35
17254;BME280;32542;52.832;13.816;2023-07-29T15:03:16;100442.97;;;24.03;60.12
17254;BME280;32542;52.832;13.816;2023-07-29T15:06:20;100446.53;;;24.04;60.10
17254;BME280;32542;52.832;13.816;2023-07-29T15:09:23;100457.22;;;24.04;60.01
17254;BME280;32542;52.832;13.816;2023-07-29T15:12:26;100454.44;;;24.06;60.13
17254;BME280;32542;52.832;13.816;2023-07-29T15:15:29;100461.59;;;24.05;60.39
17254;BME280;32542;52.832;13.816;2023-07-29T15:18:32;100469.56;;;24.07;60.31
17254;BME280;32542;52.832;13.816;2023-07-29T15:21:37;100469.56;;;24.07;59.98
17254;BME280;32542;52.832;13.816;2023-07-29T15:24:40;100465.91;;;24.08;59.90
17254;BME280;32542;52.832;13.816;2023-07-29T15:27:44;100464.09;;;24.08;60.07
17254;BME280;32542;52.832;13.816;2023-07-29T15:30:48;100463.22;;;24.08;59.87
17254;BME280;32542;52.832;13.816;2023-07-29T15:33:51;100468.59;;;24.08;60.11
17254;BME280;32542;52.832;13.816;2023-07-29T15:36:55;100470.31;;;24.09;59.99
17254;BME280;32542;52.832;13.816;2023-07-29T15:39:58;100469.44;;;24.08;60.45
17254;BME280;32542;52.832;13.816;2023-07-29T15:43:01;100467.63;;;24.09;60.32
17254;BME280;32542;52.832;13.816;2023-07-29T15:46:04;100464.97;;;24.09;59.88
17254;BME280;32542;52.832;13.816;2023-07-29T15:49:07;100469.44;;;24.08;59.98
17254;BME280;32542;52.832;13.816;2023-07-29T15:52:12;100475.66;;;24.09;59.86
17254;BME280;32542;52.832;13.816;2023-07-29T15:55:16;100486.38;;;24.09;59.78
17254;BME280;32542;52.832;13.816;2023-07-29T15:58:19;100494.28;;;24.10;60.05
17254;BME280;32542;52.832;13.816;2023-07-29T16:01:22;100488.06;;;24.10;60.40
17254;BME280;32542;52.832;13.816;2023-07-29T16:04:25;100482.72;;;24.10;60.30
17254;BME280;32542;52.832;13.816;2023-07-29T16:07:29;100485.38;;;24.10;60.37
17254;BME280;32542;52.832;13.816;2023-07-29T16:10:32;100489.03;;;24.09;60.34
17254;BME280;32542;52.832;13.816;2023-07-29T16:13:35;100481.00;;;24.09;60.47
17254;BME280;32542;52.832;13.816;2023-07-29T16:16:38;100480.16;;;24.08;60.34
17254;BME280;32542;52.832;13.816;2023-07-29T16:19:53;100488.06;;;24.10;60.50
17254;BME280;32542;52.832;13.816;2023-07-29T16:22:57;100489.03;;;24.09;60.21
17254;BME280;32542;52.832;13.816;2023-07-29T16:26:00;100487.22;;;24.09;60.28
17254;BME280;32542;52.832;13.816;2023-07-29T16:29:03;100488.06;;;24.10;60.39
17254;BME280;32542;52.832;13.816;2023-07-29T16:32:07;100488.94;;;24.10;60.47
17254;BME280;32542;52.832;13.816;2023-07-29T16:35:10;100496.09;;;24.10;60.21